createdAt,value
2023-01-10T00:01:58.479Z,6.35
2023-01-10T00:07:00.621Z,6.38
2023-01-10T00:12:20.957Z,6.30
2023-01-10T00:17:23.307Z,6.29
2023-01-10T00:22:25.903Z,6.26
2023-01-10T00:27:27.682Z,6.23
2023-01-10T00:32:29.570Z,6.20
2023-01-10T00:37:31.468Z,6.23
2023-01-10T00:42:51.729Z,6.21
2023-01-10T00:47:53.443Z,6.29
2023-01-10T00:52:55.104Z,6.29
2023-01-10T00:57:57.089Z,6.32
2023-01-10T01:02:58.880Z,6.37
2023-01-10T01:08:00.738Z,6.45
2023-01-10T01:13:11.304Z,6.45
2023-01-10T01:18:19.168Z,6.45
2023-01-10T01:23:21.105Z,6.45
2023-01-10T01:28:23.579Z,6.47
2023-01-10T01:33:25.531Z,6.48
2023-01-10T01:38:27.405Z,6.49
2023-01-10T01:43:32.113Z,6.53
2023-01-10T01:48:39.893Z,6.54
2023-01-10T01:53:48.798Z,6.51
2023-01-10T01:58:56.488Z,6.52
2023-01-10T02:04:24.596Z,6.50
2023-01-10T02:09:33.218Z,6.54
2023-01-10T02:14:38.099Z,6.47
2023-01-10T02:19:50.889Z,6.45
2023-01-10T02:25:12.597Z,6.46
2023-01-10T02:30:36.845Z,6.45
2023-01-10T02:36:17.322Z,6.38
2023-01-10T02:41:34.915Z,6.32
2023-01-10T02:46:38.469Z,6.31
2023-01-10T02:51:40.209Z,6.23
2023-01-10T02:57:08.897Z,6.24
2023-01-10T03:02:26.446Z,6.19
2023-01-10T03:07:40.366Z,6.15
2023-01-10T03:12:51.425Z,6.07
2023-01-10T03:17:58.240Z,6.04
2023-01-10T03:23:03.595Z,6.12
2023-01-10T03:28:35.933Z,6.08
2023-01-10T03:33:38.361Z,6.05
2023-01-10T03:38:50.468Z,6.06
2023-01-10T03:44:19.818Z,6.12
2023-01-10T03:49:23.764Z,6.08
2023-01-10T03:54:25.584Z,6.01
2023-01-10T03:59:28.168Z,6.01
2023-01-10T04:04:29.817Z,5.95
2023-01-10T04:09:31.462Z,6.01
2023-01-10T04:14:33.785Z,5.99
2023-01-10T04:19:35.767Z,5.96
2023-01-10T04:24:38.076Z,5.99
2023-01-10T04:29:39.643Z,5.95
2023-01-10T04:34:41.285Z,5.95
2023-01-10T04:39:42.890Z,5.96
2023-01-10T04:44:44.528Z,5.93
2023-01-10T04:49:46.115Z,5.90
2023-01-10T04:54:47.681Z,5.90
2023-01-10T04:59:49.350Z,5.88
2023-01-10T05:04:50.970Z,5.84
2023-01-10T05:09:52.771Z,5.82
2023-01-10T05:14:54.617Z,5.84
2023-01-10T05:19:56.200Z,5.82
2023-01-10T05:24:57.990Z,5.88
2023-01-10T05:29:59.640Z,5.81
2023-01-10T05:35:01.255Z,5.85
2023-01-10T05:40:03.330Z,5.87
2023-01-10T05:45:05.872Z,5.89
2023-01-10T05:50:07.944Z,5.83
2023-01-10T05:55:09.943Z,5.90
2023-01-10T06:00:12.563Z,5.88
2023-01-10T06:05:15.105Z,5.91
2023-01-10T06:10:17.432Z,5.93
2023-01-10T06:15:19.258Z,5.95
2023-01-10T06:20:20.905Z,5.95
2023-01-10T06:25:22.567Z,5.95
2023-01-10T06:30:24.352Z,6.01
2023-01-10T06:35:26.111Z,5.98
2023-01-10T06:40:28.976Z,6.00
2023-01-10T06:45:31.179Z,5.94
2023-01-10T06:50:32.897Z,6.00
2023-01-10T06:55:34.615Z,5.96
2023-01-10T07:00:36.255Z,6.02
2023-01-10T07:05:37.957Z,6.01
2023-01-10T07:10:43.873Z,6.05
2023-01-10T07:15:45.547Z,6.04
2023-01-10T07:20:47.222Z,6.06
2023-01-10T07:25:48.952Z,6.10
2023-01-10T07:30:50.594Z,6.15
2023-01-10T07:35:52.196Z,6.17
2023-01-10T07:40:54.020Z,6.24
2023-01-10T07:45:59.055Z,6.24
2023-01-10T07:51:01.469Z,6.27
2023-01-10T07:56:04.274Z,6.36
2023-01-10T08:01:07.081Z,6.37
2023-01-10T08:06:11.105Z,6.37
2023-01-10T08:11:12.959Z,6.46
2023-01-10T08:16:15.667Z,6.49
2023-01-10T08:21:17.312Z,6.57
2023-01-10T08:26:19.241Z,6.53
2023-01-10T08:31:21.062Z,6.65
2023-01-10T08:36:22.761Z,6.70
2023-01-10T08:41:24.589Z,6.75
2023-01-10T08:46:26.314Z,6.77
2023-01-10T08:51:28.219Z,6.80
2023-01-10T08:56:30.408Z,6.84
2023-01-10T09:01:32.403Z,6.83
2023-01-10T09:06:34.118Z,6.93
2023-01-10T09:11:36.245Z,6.94
2023-01-10T09:16:38.034Z,6.97
2023-01-10T09:21:39.634Z,6.99
2023-01-10T09:26:41.814Z,7.02
2023-01-10T09:31:43.586Z,7.08
2023-01-10T09:36:45.185Z,7.07
2023-01-10T09:41:48.137Z,7.10
2023-01-10T09:47:08.451Z,7.15
2023-01-10T09:52:32.625Z,7.19
2023-01-10T09:57:34.975Z,7.19
2023-01-10T10:02:43.137Z,7.24
2023-01-10T10:07:46.069Z,7.26
2023-01-10T10:12:59.882Z,7.27
2023-01-10T10:18:18.828Z,7.35
2023-01-10T10:23:41.418Z,7.40
2023-01-10T10:28:58.119Z,7.48
2023-01-10T10:34:37.470Z,7.47
2023-01-10T10:39:41.748Z,7.58
2023-01-10T10:44:55.356Z,7.66
2023-01-10T10:50:19.914Z,7.72
2023-01-10T10:55:29.960Z,7.74
2023-01-10T11:00:32.432Z,7.74
2023-01-10T11:05:40.841Z,7.82
2023-01-10T11:10:55.407Z,7.88
2023-01-10T11:15:57.000Z,7.88
2023-01-10T11:21:15.557Z,7.97
2023-01-10T11:26:40.200Z,8.02
2023-01-10T11:31:42.710Z,8.13
2023-01-10T11:36:54.207Z,8.16
2023-01-10T11:41:57.174Z,8.19
2023-01-10T11:47:03.886Z,8.18
2023-01-10T11:52:17.607Z,8.22
2023-01-10T11:57:23.469Z,8.27
2023-01-10T12:02:35.052Z,8.29
2023-01-10T12:08:06.800Z,8.29
2023-01-10T12:13:16.577Z,8.37
2023-01-10T12:18:19.435Z,8.34
2023-01-10T12:23:24.577Z,8.43
2023-01-10T12:28:30.652Z,8.44
2023-01-10T12:33:39.374Z,8.53
2023-01-10T12:39:04.983Z,8.58
2023-01-10T12:44:22.595Z,8.55
2023-01-10T12:49:35.202Z,8.57
2023-01-10T12:54:36.998Z,8.54
2023-01-10T12:59:44.281Z,8.53
2023-01-10T13:04:53.773Z,8.61
2023-01-10T13:09:56.298Z,8.62
2023-01-10T13:15:10.045Z,8.71
2023-01-10T13:20:21.928Z,8.82
2023-01-10T13:25:37.976Z,8.90
2023-01-10T13:30:43.065Z,8.90
2023-01-10T13:35:45.173Z,8.93
2023-01-10T13:41:00.675Z,8.87
2023-01-10T13:46:17.417Z,8.86
2023-01-10T13:51:22.841Z,8.78
2023-01-10T13:56:38.602Z,8.62
2023-01-10T14:02:01.098Z,8.49
2023-01-10T14:07:21.919Z,8.29
2023-01-10T14:13:09.096Z,8.24
2023-01-10T14:18:30.217Z,8.18
2023-01-10T14:23:37.292Z,8.17
2023-01-10T14:28:41.674Z,8.09
2023-01-10T14:33:44.012Z,8.04
2023-01-10T14:38:47.500Z,7.96
2023-01-10T14:44:13.915Z,7.90
2023-01-10T14:49:28.020Z,7.87
2023-01-10T14:54:29.647Z,7.79
2023-01-10T14:59:37.946Z,7.83
2023-01-10T15:04:52.363Z,7.80
2023-01-10T15:10:02.298Z,7.79
2023-01-10T15:15:16.798Z,7.74
2023-01-10T15:20:20.570Z,7.70
2023-01-10T15:25:39.250Z,7.62
2023-01-10T15:30:42.090Z,7.62
2023-01-10T15:35:44.398Z,7.58
2023-01-10T15:40:51.583Z,7.59
2023-01-10T15:45:55.953Z,7.53
2023-01-10T15:51:26.095Z,7.53
2023-01-10T15:56:39.974Z,7.47
2023-01-10T16:01:41.732Z,7.40
2023-01-10T16:06:44.298Z,7.39
2023-01-10T16:12:07.707Z,7.32
2023-01-10T16:17:11.351Z,7.28
2023-01-10T16:22:17.903Z,7.24
2023-01-10T16:27:19.621Z,7.25
2023-01-10T16:32:21.205Z,7.24
2023-01-10T16:37:24.901Z,7.18
2023-01-10T16:42:45.059Z,7.14
2023-01-10T16:47:46.742Z,7.14
2023-01-10T16:52:48.346Z,7.08
2023-01-10T16:57:51.680Z,7.17
2023-01-10T17:02:53.542Z,7.06
2023-01-10T17:07:55.403Z,7.06
2023-01-10T17:12:57.306Z,7.08
2023-01-10T17:17:59.127Z,7.02
2023-01-10T17:23:00.813Z,7.02
2023-01-10T17:28:02.407Z,7.02
2023-01-10T17:33:05.401Z,7.05
2023-01-10T17:38:08.055Z,7.00
2023-01-10T17:43:11.303Z,7.01
2023-01-10T17:48:16.028Z,6.98
2023-01-10T17:53:18.112Z,7.01
2023-01-10T17:58:20.684Z,6.96
2023-01-10T18:03:22.754Z,6.88
2023-01-10T18:08:25.369Z,6.81
2023-01-10T18:13:31.458Z,6.78
2023-01-10T18:18:33.498Z,6.81
2023-01-10T18:23:35.394Z,6.80
2023-01-10T18:28:44.604Z,6.79
2023-01-10T18:33:47.577Z,6.80
2023-01-10T18:38:49.639Z,6.82
2023-01-10T18:43:51.351Z,6.79
2023-01-10T18:48:52.987Z,6.79
2023-01-10T18:53:54.720Z,6.76
2023-01-10T18:58:58.688Z,6.66
2023-01-10T19:04:00.268Z,6.75
2023-01-10T19:09:02.092Z,6.69
2023-01-10T19:14:04.171Z,6.65
2023-01-10T19:19:09.253Z,6.62
2023-01-10T19:24:29.060Z,6.62
2023-01-10T19:29:31.008Z,6.67
2023-01-10T19:34:32.803Z,6.72
2023-01-10T19:39:35.228Z,6.73
2023-01-10T19:44:36.875Z,6.62
2023-01-10T19:49:38.819Z,6.64
2023-01-10T19:54:40.646Z,6.61
2023-01-10T19:59:42.521Z,6.49
2023-01-10T20:04:45.422Z,6.46
2023-01-10T20:09:47.085Z,6.47
2023-01-10T20:14:51.622Z,6.38
2023-01-10T20:19:55.272Z,6.43
2023-01-10T20:24:58.132Z,6.34
2023-01-10T20:29:59.724Z,6.32
2023-01-10T20:35:01.553Z,6.23
2023-01-10T20:40:09.109Z,6.17
2023-01-10T20:45:10.979Z,5.99
2023-01-10T20:50:12.945Z,6.01
2023-01-10T20:55:15.784Z,5.95
2023-01-10T21:00:18.410Z,5.93
2023-01-10T21:05:20.203Z,5.76
2023-01-10T21:10:21.865Z,5.82
2023-01-10T21:15:23.552Z,5.91
2023-01-10T21:20:27.809Z,5.94
2023-01-10T21:25:29.598Z,5.95
2023-01-10T21:30:31.251Z,5.94
2023-01-10T21:35:33.907Z,5.96
2023-01-10T21:40:35.620Z,6.00
2023-01-10T21:45:37.283Z,5.94
2023-01-10T21:50:39.874Z,5.90
2023-01-10T21:55:43.738Z,5.81
2023-01-10T22:00:45.382Z,5.87
2023-01-10T22:05:47.243Z,5.84
2023-01-10T22:10:49.107Z,5.84
2023-01-10T22:15:57.495Z,5.86
2023-01-10T22:20:59.659Z,5.91
2023-01-10T22:26:06.949Z,5.86
2023-01-10T22:31:08.845Z,5.77
2023-01-10T22:36:16.518Z,5.79
2023-01-10T22:41:28.681Z,5.72
2023-01-10T22:46:30.580Z,5.78
2023-01-10T22:51:35.522Z,5.77
2023-01-10T22:56:37.354Z,5.72
2023-01-10T23:01:39.768Z,5.74
2023-01-10T23:06:42.141Z,5.74
2023-01-10T23:11:51.219Z,5.73
2023-01-10T23:16:56.645Z,5.72
2023-01-10T23:22:01.091Z,5.77
2023-01-10T23:27:02.697Z,5.73
2023-01-10T23:32:04.593Z,5.72
2023-01-10T23:37:06.231Z,5.69
2023-01-10T23:42:08.848Z,5.64
2023-01-10T23:47:11.680Z,5.67
2023-01-10T23:52:14.944Z,5.57
2023-01-10T23:57:16.604Z,5.56
